createdAt,value
2016-05-03T00:00:47.383Z,0
2016-05-03T00:01:47.214Z,0
2016-05-03T00:02:47.185Z,0
2016-05-03T00:03:47.188Z,0
2016-05-03T00:04:47.316Z,0
2016-05-03T00:05:47.350Z,0
2016-05-03T00:06:47.290Z,0
2016-05-03T00:07:47.402Z,0
2016-05-03T00:08:47.295Z,0
2016-05-03T00:09:47.096Z,0
2016-05-03T00:10:47.238Z,0
2016-05-03T00:11:47.085Z,0
2016-05-03T00:12:46.916Z,0
2016-05-03T00:13:47.090Z,0
2016-05-03T00:14:47.203Z,0
2016-05-03T00:15:47.190Z,0
2016-05-03T00:16:47.176Z,0
2016-05-03T00:17:47.164Z,0
2016-05-03T00:18:46.979Z,0
2016-05-03T00:19:46.670Z,0
2016-05-03T00:20:47.125Z,0
2016-05-03T00:21:47.097Z,0
2016-05-03T00:22:47.006Z,0
2016-05-03T00:23:46.930Z,0
2016-05-03T00:24:46.917Z,0
2016-05-03T00:25:47.050Z,0
2016-05-03T00:26:46.893Z,0
2016-05-03T00:27:47.118Z,0
2016-05-03T00:28:47.491Z,0
2016-05-03T00:29:47.024Z,0
2016-05-03T00:30:47.015Z,0
2016-05-03T00:31:46.972Z,0
2016-05-03T00:32:46.991Z,0
2016-05-03T00:33:46.790Z,0
2016-05-03T00:34:46.948Z,0
2016-05-03T00:35:46.936Z,0
2016-05-03T00:36:46.938Z,0
2016-05-03T00:37:48.522Z,0
2016-05-03T00:38:46.744Z,0
2016-05-03T00:39:46.731Z,0
2016-05-03T00:40:46.577Z,0
2016-05-03T00:41:46.907Z,0
2016-05-03T00:42:46.849Z,0
2016-05-03T00:43:46.835Z,0
2016-05-03T00:44:46.854Z,0
2016-05-03T00:45:46.825Z,0
2016-05-03T00:46:46.687Z,0
2016-05-03T00:47:46.643Z,0
2016-05-03T00:48:46.771Z,0
2016-05-03T00:49:46.758Z,0
2016-05-03T00:50:46.745Z,0
2016-05-03T00:51:46.732Z,0
2016-05-03T00:52:46.422Z,0
2016-05-03T00:53:46.394Z,0
2016-05-03T00:54:46.693Z,0
2016-05-03T00:55:46.680Z,0
2016-05-03T00:56:46.527Z,0
2016-05-03T00:57:46.670Z,0
2016-05-03T00:58:46.657Z,0
2016-05-03T00:59:46.847Z,0
2016-05-03T01:00:46.631Z,0
2016-05-03T01:01:46.633Z,0
2016-05-03T01:02:46.606Z,0
2016-05-03T01:03:46.577Z,0
2016-05-03T01:04:46.423Z,0
2016-05-03T01:05:46.567Z,0
2016-05-03T01:06:46.397Z,0
2016-05-03T01:07:46.807Z,0
2016-05-03T01:08:46.215Z,0
2016-05-03T01:09:46.531Z,0
2016-05-03T01:10:46.517Z,0
2016-05-03T01:11:46.489Z,0
2016-05-03T01:12:46.163Z,0
2016-05-03T01:13:46.462Z,0
2016-05-03T01:14:46.326Z,0
2016-05-03T01:15:46.453Z,0
2016-05-03T01:16:46.440Z,0
2016-05-03T01:17:46.411Z,0
2016-05-03T01:18:46.243Z,0
2016-05-03T01:19:46.385Z,0
2016-05-03T01:20:46.373Z,0
2016-05-03T01:21:46.047Z,0
2016-05-03T01:22:45.893Z,0
2016-05-03T01:23:46.350Z,0
2016-05-03T01:24:46.165Z,0
2016-05-03T01:25:46.011Z,0
2016-05-03T01:26:46.154Z,0
2016-05-03T01:27:46.126Z,0
2016-05-03T01:28:46.284Z,0
2016-05-03T01:29:46.100Z,0
2016-05-03T01:30:46.243Z,0
2016-05-03T01:31:46.247Z,0
2016-05-03T01:32:46.233Z,0
2016-05-03T01:33:46.220Z,0
2016-05-03T01:34:46.051Z,0
2016-05-03T01:35:46.038Z,0
2016-05-03T01:36:45.713Z,0
2016-05-03T01:37:46.731Z,0
2016-05-03T01:38:46.155Z,0
2016-05-03T01:39:46.127Z,0
2016-05-03T01:40:46.114Z,0
2016-05-03T01:41:45.961Z,0
2016-05-03T01:42:45.947Z,0
2016-05-03T01:43:46.091Z,0
2016-05-03T01:44:45.921Z,0
2016-05-03T01:45:46.065Z,0
2016-05-03T01:46:45.740Z,0
2016-05-03T01:47:46.040Z,0
2016-05-03T01:48:46.026Z,0
2016-05-03T01:49:45.857Z,0
2016-05-03T01:50:45.688Z,0
2016-05-03T01:51:46.003Z,0
2016-05-03T01:52:45.991Z,0
2016-05-03T01:53:45.962Z,0
2016-05-03T01:54:45.948Z,0
2016-05-03T01:55:45.968Z,0
2016-05-03T01:56:45.923Z,0
2016-05-03T01:57:45.925Z,0
2016-05-03T01:58:45.756Z,0
2016-05-03T01:59:45.900Z,0
2016-05-03T02:00:45.871Z,0
2016-05-03T02:01:45.873Z,0
2016-05-03T02:02:45.720Z,0
2016-05-03T02:03:45.864Z,0
2016-05-03T02:04:45.679Z,0
2016-05-03T02:05:45.823Z,0
2016-05-03T02:06:45.808Z,0
2016-05-03T02:07:45.531Z,0
2016-05-03T02:08:45.471Z,0
2016-05-03T02:09:45.786Z,0
2016-05-03T02:10:45.805Z,0
2016-05-03T02:11:45.588Z,0
2016-05-03T02:12:45.763Z,0
2016-05-03T02:13:45.578Z,0
2016-05-03T02:14:45.721Z,0
2016-05-03T02:15:45.708Z,0
2016-05-03T02:16:45.539Z,0
2016-05-03T02:17:45.666Z,0
2016-05-03T02:18:45.498Z,0
2016-05-03T02:19:45.641Z,0
2016-05-03T02:20:45.629Z,0
2016-05-03T02:21:45.457Z,0
2016-05-03T02:22:45.302Z,0
2016-05-03T02:23:45.446Z,0
2016-05-03T02:24:45.432Z,0
2016-05-03T02:25:45.576Z,0
2016-05-03T02:26:45.548Z,0
2016-05-03T02:27:45.535Z,0
2016-05-03T02:28:45.584Z,0
2016-05-03T02:29:45.525Z,0
2016-05-03T02:30:45.496Z,0
2016-05-03T02:31:45.499Z,0
2016-05-03T02:32:45.486Z,0
2016-05-03T02:33:45.456Z,0
2016-05-03T02:34:45.476Z,0
2016-05-03T02:35:45.447Z,0
2016-05-03T02:36:45.637Z,0
2016-05-03T02:37:45.686Z,0
2016-05-03T02:38:45.393Z,0
2016-05-03T02:39:45.395Z,0
2016-05-03T02:40:45.210Z,0
2016-05-03T02:41:45.369Z,0
2016-05-03T02:42:45.216Z,0
2016-05-03T02:43:45.188Z,0
2016-05-03T02:44:45.316Z,0
2016-05-03T02:45:45.318Z,0
2016-05-03T02:46:45.321Z,0
2016-05-03T02:47:45.136Z,0
2016-05-03T02:48:45.279Z,0
2016-05-03T02:49:45.297Z,0
2016-05-03T02:50:45.112Z,0
2016-05-03T02:51:45.428Z,0
2016-05-03T02:52:45.415Z,0
2016-05-03T02:53:44.918Z,0
2016-05-03T02:54:45.061Z,0
2016-05-03T02:55:45.189Z,0
2016-05-03T02:56:45.176Z,0
2016-05-03T02:57:45.194Z,0
2016-05-03T02:58:45.182Z,0
2016-05-03T02:59:45.137Z,0
2016-05-03T03:00:44.952Z,0
2016-05-03T03:01:44.954Z,0
2016-05-03T03:02:45.145Z,0
2016-05-03T03:03:44.929Z,0
2016-05-03T03:04:45.073Z,0
2016-05-03T03:05:45.012Z,0
2016-05-03T03:06:45.062Z,0
2016-05-03T03:07:44.784Z,0
2016-05-03T03:08:44.864Z,0
2016-05-03T03:09:45.038Z,0
2016-05-03T03:10:45.011Z,0
2016-05-03T03:11:44.825Z,0
2016-05-03T03:12:44.969Z,0
2016-05-03T03:13:44.799Z,0
2016-05-03T03:14:45.147Z,0
2016-05-03T03:15:44.789Z,0
2016-05-03T03:16:44.917Z,0
2016-05-03T03:17:44.905Z,0
2016-05-03T03:18:44.750Z,0
2016-05-03T03:19:44.878Z,0
2016-05-03T03:20:44.724Z,0
2016-05-03T03:21:44.852Z,0
2016-05-03T03:22:46.043Z,0
2016-05-03T03:23:44.842Z,0
2016-05-03T03:24:44.813Z,0
2016-05-03T03:25:44.660Z,0
2016-05-03T03:26:44.787Z,0
2016-05-03T03:27:44.774Z,0
2016-05-03T03:28:44.762Z,0
2016-05-03T03:29:44.749Z,0
2016-05-03T03:30:44.596Z,0
2016-05-03T03:31:44.568Z,0
2016-05-03T03:32:44.570Z,0
2016-05-03T03:33:44.698Z,0
2016-05-03T03:34:44.684Z,0
2016-05-03T03:35:44.687Z,0
2016-05-03T03:36:44.362Z,0
2016-05-03T03:37:44.614Z,0
2016-05-03T03:38:44.476Z,0
2016-05-03T03:39:44.635Z,0
2016-05-03T03:40:44.466Z,0
2016-05-03T03:41:44.453Z,0
2016-05-03T03:42:44.628Z,0
2016-05-03T03:43:44.568Z,0
2016-05-03T03:44:44.556Z,0
2016-05-03T03:45:44.400Z,0
2016-05-03T03:46:44.544Z,0
2016-05-03T03:47:44.516Z,0
2016-05-03T03:48:44.363Z,0
2016-05-03T03:49:44.349Z,0
2016-05-03T03:50:44.337Z,0
2016-05-03T03:51:44.464Z,0
2016-05-03T03:52:45.639Z,0
2016-05-03T03:53:44.297Z,0
2016-05-03T03:54:44.285Z,0
2016-05-03T03:55:44.131Z,0
2016-05-03T03:56:44.400Z,0
2016-05-03T03:57:44.433Z,0
2016-05-03T03:58:44.404Z,0
2016-05-03T03:59:44.204Z,0
2016-05-03T04:00:44.051Z,0
2016-05-03T04:01:44.038Z,0
2016-05-03T04:02:44.182Z,0
2016-05-03T04:03:44.324Z,0
2016-05-03T04:04:44.312Z,0
2016-05-03T04:05:44.284Z,0
2016-05-03T04:06:44.287Z,0
2016-05-03T04:07:44.695Z,0
2016-05-03T04:08:44.103Z,0
2016-05-03T04:09:43.778Z,0
2016-05-03T04:10:44.078Z,0
2016-05-03T04:11:44.065Z,0
2016-05-03T04:12:44.053Z,0
2016-05-03T04:13:44.196Z,0
2016-05-03T04:14:44.182Z,0
2016-05-03T04:15:44.169Z,0
2016-05-03T04:16:44.156Z,0
2016-05-03T04:17:44.144Z,0
2016-05-03T04:18:43.975Z,0
2016-05-03T04:19:43.977Z,0
2016-05-03T04:20:43.949Z,0
2016-05-03T04:21:44.081Z,0
2016-05-03T04:22:44.145Z,0
2016-05-03T04:23:44.180Z,0
2016-05-03T04:24:43.900Z,0
2016-05-03T04:25:44.075Z,0
2016-05-03T04:26:44.261Z,0
2016-05-03T04:27:44.265Z,5
2016-05-03T04:28:44.315Z,5
2016-05-03T04:29:44.272Z,5
2016-05-03T04:30:44.135Z,5
2016-05-03T04:31:44.278Z,5
2016-05-03T04:32:44.114Z,5
2016-05-03T04:33:44.280Z,5
2016-05-03T04:34:44.117Z,5
2016-05-03T04:35:44.251Z,10
2016-05-03T04:36:44.243Z,10
2016-05-03T04:37:44.233Z,10
2016-05-03T04:38:44.238Z,10
2016-05-03T04:39:44.055Z,10
2016-05-03T04:40:44.201Z,10
2016-05-03T04:41:44.191Z,5
2016-05-03T04:42:44.022Z,5
2016-05-03T04:43:44.010Z,5
2016-05-03T04:44:44.154Z,10
2016-05-03T04:45:43.986Z,10
2016-05-03T04:46:44.130Z,10
2016-05-03T04:47:43.961Z,10
2016-05-03T04:48:44.104Z,10
2016-05-03T04:49:44.092Z,5
2016-05-03T04:50:43.923Z,5
2016-05-03T04:51:44.082Z,0
2016-05-03T04:52:43.944Z,0
2016-05-03T04:53:43.884Z,0
2016-05-03T04:54:44.028Z,0
2016-05-03T04:55:43.999Z,0
2016-05-03T04:56:44.002Z,0
2016-05-03T04:57:43.676Z,0
2016-05-03T04:58:44.164Z,0
2016-05-03T04:59:43.979Z,5
2016-05-03T05:00:43.950Z,0
2016-05-03T05:01:43.937Z,5
2016-05-03T05:02:43.784Z,5
2016-05-03T05:03:43.896Z,5
2016-05-03T05:04:43.898Z,5
2016-05-03T05:05:43.901Z,0
2016-05-03T05:06:43.888Z,5
2016-05-03T05:07:44.234Z,10
2016-05-03T05:08:43.534Z,10
2016-05-03T05:09:43.678Z,15
2016-05-03T05:10:43.977Z,15
2016-05-03T05:11:43.683Z,15
2016-05-03T05:12:43.780Z,15
2016-05-03T05:13:43.625Z,15
2016-05-03T05:14:43.472Z,15
2016-05-03T05:15:43.756Z,15
2016-05-03T05:16:43.571Z,20
2016-05-03T05:17:43.574Z,20
2016-05-03T05:18:43.577Z,15
2016-05-03T05:19:43.688Z,15
2016-05-03T05:20:43.676Z,15
2016-05-03T05:21:43.663Z,15
2016-05-03T05:22:43.729Z,20
2016-05-03T05:23:43.465Z,20
2016-05-03T05:24:43.484Z,25
2016-05-03T05:25:43.455Z,20
2016-05-03T05:26:43.473Z,20
2016-05-03T05:27:43.429Z,25
2016-05-03T05:28:43.556Z,20
2016-05-03T05:29:43.418Z,20
2016-05-03T05:30:43.562Z,20
2016-05-03T05:31:43.534Z,15
2016-05-03T05:32:43.208Z,15
2016-05-03T05:33:43.492Z,20
2016-05-03T05:34:43.479Z,20
2016-05-03T05:35:43.466Z,20
2016-05-03T05:36:43.187Z,20
2016-05-03T05:37:43.159Z,15
2016-05-03T05:38:43.427Z,15
2016-05-03T05:39:43.431Z,15
2016-05-03T05:40:43.386Z,15
2016-05-03T05:41:43.388Z,15
2016-05-03T05:42:43.219Z,15
2016-05-03T05:43:43.222Z,20
2016-05-03T05:44:43.177Z,20
2016-05-03T05:45:43.321Z,20
2016-05-03T05:46:43.308Z,20
2016-05-03T05:47:43.139Z,20
2016-05-03T05:48:43.298Z,20
2016-05-03T05:49:43.301Z,20
2016-05-03T05:50:43.100Z,15
2016-05-03T05:51:43.228Z,15
2016-05-03T05:52:43.668Z,15
2016-05-03T05:53:43.233Z,15
2016-05-03T05:54:43.033Z,15
2016-05-03T05:55:42.879Z,15
2016-05-03T05:56:43.007Z,15
2016-05-03T05:57:43.151Z,20
2016-05-03T05:58:42.981Z,20
2016-05-03T05:59:43.156Z,25
2016-05-03T06:00:43.127Z,25
2016-05-03T06:01:42.958Z,25
2016-05-03T06:02:43.070Z,30
2016-05-03T06:03:42.916Z,35
2016-05-03T06:04:42.904Z,40
2016-05-03T06:05:42.876Z,40
2016-05-03T06:06:42.893Z,40
2016-05-03T06:07:43.317Z,40
2016-05-03T06:08:42.836Z,40
2016-05-03T06:09:42.980Z,45
2016-05-03T06:10:42.811Z,50
2016-05-03T06:11:42.954Z,55
2016-05-03T06:12:42.941Z,55
2016-05-03T06:13:42.771Z,65
2016-05-03T06:14:42.915Z,75
2016-05-03T06:15:42.730Z,80
2016-05-03T06:16:42.905Z,80
2016-05-03T06:17:42.861Z,80
2016-05-03T06:18:42.848Z,80
2016-05-03T06:19:42.835Z,80
2016-05-03T06:20:42.822Z,80
2016-05-03T06:21:42.824Z,85
2016-05-03T06:22:42.827Z,85
2016-05-03T06:23:42.643Z,85
2016-05-03T06:24:42.755Z,90
2016-05-03T06:25:42.741Z,90
2016-05-03T06:26:42.728Z,100
2016-05-03T06:27:42.716Z,105
2016-05-03T06:28:43.531Z,110
2016-05-03T06:29:42.721Z,115
2016-05-03T06:30:42.693Z,115
2016-05-03T06:31:42.523Z,115
2016-05-03T06:32:42.510Z,115
2016-05-03T06:33:42.654Z,110
2016-05-03T06:34:42.484Z,105
2016-05-03T06:35:42.628Z,100
2016-05-03T06:36:42.599Z,100
2016-05-03T06:37:43.009Z,95
2016-05-03T06:38:42.572Z,95
2016-05-03T06:39:42.404Z,95
2016-05-03T06:40:42.406Z,90
2016-05-03T06:41:42.378Z,90
2016-05-03T06:42:42.522Z,105
2016-05-03T06:43:42.525Z,120
2016-05-03T06:44:42.495Z,125
2016-05-03T06:45:42.310Z,125
2016-05-03T06:46:42.485Z,135
2016-05-03T06:47:42.300Z,130
2016-05-03T06:48:42.460Z,135
2016-05-03T06:49:42.416Z,125
2016-05-03T06:50:42.246Z,100
2016-05-03T06:51:42.421Z,70
2016-05-03T06:52:42.877Z,45
2016-05-03T06:53:42.410Z,60
2016-05-03T06:54:42.351Z,60
2016-05-03T06:55:42.337Z,55
2016-05-03T06:56:42.185Z,70
2016-05-03T06:57:42.155Z,85
2016-05-03T06:58:42.143Z,95
2016-05-03T06:59:42.146Z,110
2016-05-03T07:00:42.288Z,115
2016-05-03T07:01:42.276Z,115
2016-05-03T07:02:41.935Z,115
2016-05-03T07:03:42.250Z,105
2016-05-03T07:04:42.221Z,85
2016-05-03T07:05:42.193Z,80
2016-05-03T07:06:42.196Z,90
2016-05-03T07:07:43.151Z,150
2016-05-03T07:08:42.170Z,185
2016-05-03T07:09:42.000Z,205
2016-05-03T07:10:41.987Z,215
2016-05-03T07:11:42.131Z,230
2016-05-03T07:12:41.650Z,240
2016-05-03T07:13:42.106Z,245
2016-05-03T07:14:42.092Z,245
2016-05-03T07:15:41.767Z,225
2016-05-03T07:16:42.066Z,200
2016-05-03T07:17:42.038Z,225
2016-05-03T07:18:42.041Z,230
2016-05-03T07:19:42.027Z,205
2016-05-03T07:20:41.999Z,200
2016-05-03T07:21:41.986Z,155
2016-05-03T07:22:42.192Z,145
2016-05-03T07:23:41.975Z,160
2016-05-03T07:24:41.947Z,200
2016-05-03T07:25:41.638Z,210
2016-05-03T07:26:41.937Z,190
2016-05-03T07:27:41.752Z,215
2016-05-03T07:28:41.895Z,175
2016-05-03T07:29:41.883Z,190
2016-05-03T07:30:41.869Z,180
2016-05-03T07:31:41.872Z,170
2016-05-03T07:32:41.704Z,155
2016-05-03T07:33:41.846Z,140
2016-05-03T07:34:41.693Z,130
2016-05-03T07:35:41.664Z,115
2016-05-03T07:36:41.807Z,130
2016-05-03T07:37:41.638Z,120
2016-05-03T07:38:41.765Z,130
2016-05-03T07:39:41.754Z,135
2016-05-03T07:40:41.740Z,130
2016-05-03T07:41:41.931Z,125
2016-05-03T07:42:41.715Z,135
2016-05-03T07:43:41.545Z,140
2016-05-03T07:44:41.532Z,130
2016-05-03T07:45:41.534Z,110
2016-05-03T07:46:41.662Z,135
2016-05-03T07:47:41.650Z,170
2016-05-03T07:48:41.622Z,195
2016-05-03T07:49:41.624Z,270
2016-05-03T07:50:41.611Z,230
2016-05-03T07:51:41.598Z,180
2016-05-03T07:52:41.788Z,195
2016-05-03T07:53:41.416Z,185
2016-05-03T07:54:41.403Z,235
2016-05-03T07:55:41.391Z,290
2016-05-03T07:56:41.533Z,365
2016-05-03T07:57:41.520Z,385
2016-05-03T07:58:44.148Z,260
2016-05-03T07:59:41.494Z,290
2016-05-03T08:00:41.497Z,225
2016-05-03T08:01:41.469Z,230
2016-05-03T08:02:41.472Z,255
2016-05-03T08:03:41.443Z,255
2016-05-03T08:04:41.274Z,240
2016-05-03T08:05:41.433Z,275
2016-05-03T08:06:41.420Z,345
2016-05-03T08:07:41.548Z,355
2016-05-03T08:08:41.394Z,480
2016-05-03T08:09:41.381Z,505
2016-05-03T08:10:41.367Z,405
2016-05-03T08:11:41.355Z,1540
2016-05-03T08:12:41.201Z,335
2016-05-03T08:13:41.016Z,190
2016-05-03T08:14:41.317Z,1140
2016-05-03T08:15:41.319Z,1160
2016-05-03T08:16:41.322Z,1165
2016-05-03T08:17:41.293Z,1175
2016-05-03T08:18:41.295Z,1235
2016-05-03T08:19:41.267Z,1385
2016-05-03T08:20:41.253Z,1505
2016-05-03T08:21:41.272Z,630
2016-05-03T08:22:42.134Z,1455
2016-05-03T08:23:41.091Z,1525
2016-05-03T08:24:41.077Z,1525
2016-05-03T08:25:41.221Z,1635
2016-05-03T08:26:41.224Z,1760
2016-05-03T08:27:41.226Z,490
2016-05-03T08:28:41.619Z,605
2016-05-03T08:29:41.247Z,1635
2016-05-03T08:30:41.047Z,400
2016-05-03T08:31:41.205Z,160
2016-05-03T08:32:41.208Z,155
2016-05-03T08:33:41.195Z,145
2016-05-03T08:34:41.245Z,235
2016-05-03T08:35:41.029Z,275
2016-05-03T08:36:41.187Z,250
2016-05-03T08:37:41.174Z,1810
2016-05-03T08:38:41.021Z,255
2016-05-03T08:39:41.164Z,1675
2016-05-03T08:40:41.167Z,1675
2016-05-03T08:41:41.154Z,1735
2016-05-03T08:42:41.141Z,1805
2016-05-03T08:43:40.987Z,1785
2016-05-03T08:44:40.976Z,1765
2016-05-03T08:45:41.134Z,1040
2016-05-03T08:46:41.136Z,1460
2016-05-03T08:47:41.109Z,1720
2016-05-03T08:48:40.970Z,920
2016-05-03T08:49:40.988Z,1505
2016-05-03T08:50:40.803Z,1130
2016-05-03T08:51:40.962Z,1240
2016-05-03T08:52:41.558Z,1300
2016-05-03T08:53:41.108Z,1100
2016-05-03T08:54:41.095Z,1335
2016-05-03T08:55:41.098Z,1220
2016-05-03T08:56:41.148Z,1020
2016-05-03T08:57:41.088Z,1135
2016-05-03T08:58:40.935Z,930
2016-05-03T08:59:41.156Z,365
2016-05-03T09:00:40.815Z,335
2016-05-03T09:01:40.911Z,240
2016-05-03T09:02:41.070Z,315
2016-05-03T09:03:41.057Z,1380
2016-05-03T09:04:41.107Z,980
2016-05-03T09:05:41.110Z,1120
2016-05-03T09:06:41.065Z,1285
2016-05-03T09:07:43.818Z,535
2016-05-03T09:08:41.071Z,575
2016-05-03T09:09:41.042Z,625
2016-05-03T09:10:41.045Z,315
2016-05-03T09:11:41.048Z,190
2016-05-03T09:12:41.035Z,125
2016-05-03T09:13:41.068Z,110
2016-05-03T09:14:41.056Z,120
2016-05-03T09:15:41.026Z,130
2016-05-03T09:16:40.873Z,150
2016-05-03T09:17:40.876Z,180
2016-05-03T09:18:40.566Z,215
2016-05-03T09:19:41.022Z,280
2016-05-03T09:20:40.869Z,300
2016-05-03T09:21:40.855Z,390
2016-05-03T09:22:41.628Z,890
2016-05-03T09:23:40.830Z,310
2016-05-03T09:24:40.833Z,310
2016-05-03T09:25:40.975Z,275
2016-05-03T09:26:40.963Z,335
2016-05-03T09:27:40.966Z,1685
2016-05-03T09:28:40.984Z,1195
2016-05-03T09:29:40.939Z,1550
2016-05-03T09:30:40.942Z,1400
2016-05-03T09:31:40.960Z,1740
2016-05-03T09:32:40.916Z,1765
2016-05-03T09:33:40.762Z,1600
2016-05-03T09:34:40.625Z,630
2016-05-03T09:35:40.909Z,410
2016-05-03T09:36:40.927Z,890
2016-05-03T09:37:40.758Z,1240
2016-05-03T09:38:40.745Z,270
2016-05-03T09:39:40.748Z,610
2016-05-03T09:40:40.876Z,580
2016-05-03T09:41:40.721Z,860
2016-05-03T09:42:40.881Z,1015
2016-05-03T09:43:40.727Z,1055
2016-05-03T09:44:40.871Z,495
2016-05-03T09:45:40.857Z,755
2016-05-03T09:46:40.860Z,735
2016-05-03T09:47:40.863Z,810
2016-05-03T09:48:40.850Z,1480
2016-05-03T09:49:40.697Z,1615
2016-05-03T09:50:40.839Z,1035
2016-05-03T09:51:40.828Z,520
2016-05-03T09:52:40.689Z,340
2016-05-03T09:53:40.675Z,295
2016-05-03T09:54:40.820Z,265
2016-05-03T09:55:40.838Z,270
2016-05-03T09:56:40.653Z,315
2016-05-03T09:57:40.797Z,350
2016-05-03T09:58:40.642Z,315
2016-05-03T09:59:40.786Z,255
2016-05-03T10:00:40.632Z,205
2016-05-03T10:01:40.683Z,170
2016-05-03T10:02:40.778Z,145
2016-05-03T10:03:40.765Z,135
2016-05-03T10:04:40.752Z,130
2016-05-03T10:05:40.599Z,125
2016-05-03T10:06:40.460Z,130
2016-05-03T10:07:40.729Z,135
2016-05-03T10:08:40.748Z,140
2016-05-03T10:09:40.781Z,150
2016-05-03T10:10:40.565Z,170
2016-05-03T10:11:40.709Z,200
2016-05-03T10:12:40.712Z,235
2016-05-03T10:13:40.698Z,265
2016-05-03T10:14:40.373Z,295
2016-05-03T10:15:40.548Z,330
2016-05-03T10:16:40.520Z,355
2016-05-03T10:17:40.725Z,395
2016-05-03T10:18:40.493Z,485
2016-05-03T10:19:40.652Z,895
2016-05-03T10:20:40.343Z,955
2016-05-03T10:21:40.470Z,1750
2016-05-03T10:22:40.800Z,635
2016-05-03T10:23:40.475Z,595
2016-05-03T10:24:40.462Z,655
2016-05-03T10:25:40.450Z,610
2016-05-03T10:26:40.609Z,600
2016-05-03T10:27:40.424Z,570
2016-05-03T10:28:41.192Z,585
2016-05-03T10:29:40.430Z,790
2016-05-03T10:30:40.572Z,735
2016-05-03T10:31:40.403Z,1210
2016-05-03T10:32:40.391Z,1435
2016-05-03T10:33:40.408Z,965
2016-05-03T10:34:40.536Z,1305
2016-05-03T10:35:40.539Z,1595
2016-05-03T10:36:40.370Z,640
2016-05-03T10:37:40.232Z,365
2016-05-03T10:38:40.360Z,270
2016-05-03T10:39:40.363Z,260
2016-05-03T10:40:40.349Z,320
2016-05-03T10:41:40.524Z,365
2016-05-03T10:42:40.340Z,465
2016-05-03T10:43:40.326Z,2075
2016-05-03T10:44:40.485Z,2070
2016-05-03T10:45:40.332Z,1990
2016-05-03T10:46:40.475Z,2375
2016-05-03T10:47:40.493Z,2180
2016-05-03T10:48:40.167Z,835
2016-05-03T10:49:40.483Z,1575
2016-05-03T10:50:40.454Z,2350
2016-05-03T10:51:40.332Z,675
2016-05-03T10:52:41.007Z,1005
2016-05-03T10:53:40.290Z,940
2016-05-03T10:54:40.449Z,870
2016-05-03T10:55:40.296Z,2095
2016-05-03T10:56:40.283Z,755
2016-05-03T10:57:40.442Z,2550
2016-05-03T10:58:40.273Z,1455
2016-05-03T10:59:40.447Z,2600
2016-05-03T11:00:40.419Z,1240
2016-05-03T11:01:40.422Z,580
2016-05-03T11:02:40.424Z,535
2016-05-03T11:03:40.271Z,530
2016-05-03T11:04:40.430Z,485
2016-05-03T11:05:40.260Z,505
2016-05-03T11:06:40.419Z,540
2016-05-03T11:07:41.094Z,500
2016-05-03T11:08:40.409Z,1560
2016-05-03T11:09:40.413Z,2335
2016-05-03T11:10:40.258Z,2310
2016-05-03T11:11:40.401Z,2255
2016-05-03T11:12:40.249Z,2255
2016-05-03T11:13:40.390Z,835
2016-05-03T11:14:40.409Z,2355
2016-05-03T11:15:40.490Z,380
2016-05-03T11:16:40.243Z,385
2016-05-03T11:17:40.246Z,460
2016-05-03T11:18:40.264Z,640
2016-05-03T11:19:40.392Z,1850
2016-05-03T11:20:40.237Z,2250
2016-05-03T11:21:40.413Z,2260
2016-05-03T11:22:40.072Z,2250
2016-05-03T11:23:40.434Z,2250
2016-05-03T11:24:40.374Z,2265
2016-05-03T11:25:40.236Z,2280
2016-05-03T11:26:40.379Z,2265
2016-05-03T11:27:40.414Z,2240
2016-05-03T11:28:40.384Z,2235
2016-05-03T11:29:40.403Z,2200
2016-05-03T11:30:40.062Z,2200
2016-05-03T11:31:40.283Z,2235
2016-05-03T11:32:40.255Z,2345
2016-05-03T11:33:40.383Z,435
2016-05-03T11:34:40.385Z,405
2016-05-03T11:35:40.388Z,1890
2016-05-03T11:36:40.375Z,630
2016-05-03T11:37:40.518Z,2310
2016-05-03T11:38:40.380Z,255
2016-05-03T11:39:40.368Z,225
2016-05-03T11:40:40.057Z,280
2016-05-03T11:41:40.374Z,2315
2016-05-03T11:42:40.376Z,2350
2016-05-03T11:43:40.379Z,2375
2016-05-03T11:44:40.397Z,1555
2016-05-03T11:45:40.384Z,395
2016-05-03T11:46:40.370Z,595
2016-05-03T11:47:40.076Z,2300
2016-05-03T11:48:40.392Z,2280
2016-05-03T11:49:40.379Z,2280
2016-05-03T11:50:40.382Z,2315
2016-05-03T11:51:40.212Z,2320
2016-05-03T11:52:41.278Z,2340
2016-05-03T11:53:40.467Z,2040
2016-05-03T11:54:40.393Z,2315
2016-05-03T11:55:40.223Z,2355
2016-05-03T11:56:40.382Z,2400
2016-05-03T11:57:40.087Z,2485
2016-05-03T11:58:40.372Z,2395
2016-05-03T11:59:40.375Z,2445
2016-05-03T12:00:40.392Z,2380
2016-05-03T12:01:40.256Z,2070
2016-05-03T12:02:40.226Z,390
2016-05-03T12:03:40.385Z,390
2016-05-03T12:04:40.388Z,2240
2016-05-03T12:05:40.313Z,2270
2016-05-03T12:06:40.394Z,2280
2016-05-03T12:07:41.069Z,2280
2016-05-03T12:08:40.227Z,2275
2016-05-03T12:09:40.402Z,2280
2016-05-03T12:10:40.405Z,2255
2016-05-03T12:11:40.422Z,2220
2016-05-03T12:12:40.394Z,2200
2016-05-03T12:13:40.240Z,2175
2016-05-03T12:14:40.400Z,2150
2016-05-03T12:15:40.402Z,2155
2016-05-03T12:16:40.404Z,2195
2016-05-03T12:17:40.251Z,2135
2016-05-03T12:18:40.269Z,2020
2016-05-03T12:19:40.460Z,1890
2016-05-03T12:20:40.400Z,1810
2016-05-03T12:21:40.293Z,1815
2016-05-03T12:22:40.280Z,2005
2016-05-03T12:23:45.705Z,525
2016-05-03T12:24:40.427Z,365
2016-05-03T12:25:40.288Z,375
2016-05-03T12:26:40.275Z,315
2016-05-03T12:27:40.450Z,275
2016-05-03T12:28:41.140Z,245
2016-05-03T12:29:40.283Z,240
2016-05-03T12:30:40.442Z,275
2016-05-03T12:31:40.445Z,380
2016-05-03T12:32:40.276Z,460
2016-05-03T12:33:40.435Z,395
2016-05-03T12:34:40.141Z,385
2016-05-03T12:35:40.424Z,430
2016-05-03T12:36:40.427Z,825
2016-05-03T12:37:41.867Z,2350
2016-05-03T12:38:40.136Z,2325
2016-05-03T12:39:40.420Z,2255
2016-05-03T12:40:40.438Z,2250
2016-05-03T12:41:40.425Z,2220
2016-05-03T12:42:40.427Z,2285
2016-05-03T12:43:40.446Z,2275
2016-05-03T12:44:40.432Z,2300
2016-05-03T12:45:40.421Z,365
2016-05-03T12:46:40.424Z,365
2016-05-03T12:47:40.441Z,1730
2016-05-03T12:48:40.272Z,470
2016-05-03T12:49:40.415Z,2365
2016-05-03T12:50:40.434Z,1845
2016-05-03T12:51:40.420Z,1640
2016-05-03T12:52:43.017Z,2110
2016-05-03T12:53:40.098Z,2150
2016-05-03T12:54:40.240Z,645
2016-05-03T12:55:40.275Z,2110
2016-05-03T12:56:40.418Z,2095
2016-05-03T12:57:40.281Z,2135
2016-05-03T12:58:40.096Z,2175
2016-05-03T12:59:40.427Z,2225
2016-05-03T13:00:40.414Z,2315
2016-05-03T13:01:40.417Z,2205
2016-05-03T13:02:40.403Z,425
2016-05-03T13:03:40.281Z,325
2016-05-03T13:04:40.253Z,310
2016-05-03T13:05:40.427Z,410
2016-05-03T13:06:40.305Z,2235
2016-05-03T13:07:40.275Z,2140
2016-05-03T13:08:40.278Z,2060
2016-05-03T13:09:40.250Z,2050
2016-05-03T13:10:40.409Z,2055
2016-05-03T13:11:40.412Z,2060
2016-05-03T13:12:40.258Z,2075
2016-05-03T13:13:40.433Z,2100
2016-05-03T13:14:40.420Z,2050
2016-05-03T13:15:40.422Z,1900
2016-05-03T13:16:40.425Z,1655
2016-05-03T13:17:40.427Z,1340
2016-05-03T13:18:40.274Z,1265
2016-05-03T13:19:40.121Z,1525
2016-05-03T13:20:40.452Z,1815
2016-05-03T13:21:40.126Z,2055
2016-05-03T13:22:40.567Z,2145
2016-05-03T13:23:40.429Z,2145
2016-05-03T13:24:40.438Z,2140
2016-05-03T13:25:40.424Z,2075
2016-05-03T13:26:40.286Z,2020
2016-05-03T13:27:40.467Z,1960
2016-05-03T13:28:40.338Z,1920
2016-05-03T13:29:40.569Z,1880
2016-05-03T13:30:40.440Z,1890
2016-05-03T13:31:40.625Z,1895
2016-05-03T13:32:40.685Z,1920
2016-05-03T13:33:40.671Z,1945
2016-05-03T13:34:40.689Z,1940
2016-05-03T13:35:40.722Z,1920
2016-05-03T13:36:40.568Z,1925
2016-05-03T13:37:40.594Z,1930
2016-05-03T13:38:40.603Z,1985
2016-05-03T13:39:40.752Z,2030
2016-05-03T13:40:40.760Z,270
2016-05-03T13:41:40.846Z,220
2016-05-03T13:42:40.775Z,290
2016-05-03T13:43:40.779Z,2110
2016-05-03T13:44:40.814Z,1015
2016-05-03T13:45:40.819Z,2065
2016-05-03T13:46:40.793Z,995
2016-05-03T13:47:40.812Z,1970
2016-05-03T13:48:40.644Z,1890
2016-05-03T13:49:40.819Z,1890
2016-05-03T13:50:40.823Z,1905
2016-05-03T13:51:40.639Z,1880
2016-05-03T13:52:42.344Z,1925
2016-05-03T13:53:40.817Z,1805
2016-05-03T13:54:40.804Z,1955
2016-05-03T13:55:40.667Z,1305
2016-05-03T13:56:40.795Z,260
2016-05-03T13:57:40.813Z,255
2016-05-03T13:58:40.800Z,295
2016-05-03T13:59:40.647Z,345
2016-05-03T14:00:40.821Z,350
2016-05-03T14:01:40.840Z,395
2016-05-03T14:02:40.843Z,1770
2016-05-03T14:03:40.642Z,1885